Time;durP1;ratioP1;P1;durP2;ratioP2;P2;SDS_P1;SDS_P2;PMS_P1;PMS_P2;Temp;Humidity;BMP_temperature;BMP_pressure;BME280_temperature;BME280_humidity;BME280_pressure;Samples;Min_cycle;Max_cycle;Signal;HPM_P1;HPM_P2
2021/05/08 00:00:39;;;;;;;10.25;5.07;;;4.40;92.60;;;;;;5127391;27;20150;-48
2021/05/08 00:03:10;;;;;;;6.97;4.90;;;4.50;92.90;;;;;;5134228;27;20054;-47
2021/05/08 00:05:39;;;;;;;6.45;4.93;;;4.40;92.50;;;;;;5150847;27;20435;-47
2021/05/08 00:08:06;;;;;;;8.15;5.07;;;4.40;92.50;;;;;;5149648;27;20195;-48
2021/05/08 00:10:36;;;;;;;8.15;5.63;;;4.40;92.60;;;;;;5131185;27;20085;-47
2021/05/08 00:13:07;;;;;;;5.43;4.63;;;4.40;92.60;;;;;;5149821;27;20057;-48
2021/05/08 00:15:35;;;;;;;6.72;4.80;;;4.40;92.90;;;;;;5150195;27;20099;-47
2021/05/08 00:18:07;;;;;;;8.68;5.80;;;4.20;92.50;;;;;;5149433;27;20062;-49
2021/05/08 00:20:36;;;;;;;9.07;5.28;;;4.20;92.80;;;;;;5151407;27;20042;-48
2021/05/08 00:23:05;;;;;;;5.97;4.80;;;4.20;92.60;;;;;;5149295;27;20091;-49
2021/05/08 00:25:37;;;;;;;8.13;5.30;;;4.10;92.50;;;;;;5149955;27;20145;-47
2021/05/08 00:28:23;;;;;;;7.28;4.68;;;4.10;92.80;;;;;;5146233;27;20134;-45
2021/05/08 00:30:54;;;;;;;11.18;6.38;;;4.10;92.70;;;;;;5149175;27;20509;-47
2021/05/08 00:33:38;;;;;;;10.25;5.93;;;4.00;93.20;;;;;;5156637;27;20045;-48
2021/05/08 00:36:06;;;;;;;6.40;5.38;;;4.00;93.60;;;;;;5149171;27;20519;-46
2021/05/08 00:38:32;;;;;;;8.57;5.57;;;4.00;93.30;;;;;;5149007;27;20082;-50
2021/05/08 00:41:02;;;;;;;7.53;5.85;;;3.90;93.20;;;;;;5130453;27;20093;-46
2021/05/08 00:43:29;;;;;;;9.48;6.70;;;3.90;93.10;;;;;;5136948;27;20047;-47
2021/05/08 00:45:59;;;;;;;10.95;6.32;;;3.90;93.10;;;;;;5130709;27;20092;-48
2021/05/08 00:48:29;;;;;;;10.02;6.30;;;3.80;93.40;;;;;;5139655;27;20043;-47
2021/05/08 00:50:58;;;;;;;8.90;6.00;;;3.80;93.40;;;;;;5116718;27;20517;-45
2021/05/08 00:53:25;;;;;;;8.85;6.10;;;3.80;93.60;;;;;;5148897;27;20500;-47
2021/05/08 00:55:57;;;;;;;9.73;5.95;;;3.80;93.60;;;;;;5148725;27;20154;-49
2021/05/08 00:58:24;;;;;;;8.85;7.45;;;3.70;93.90;;;;;;5145623;27;20046;-47
2021/05/08 01:00:56;;;;;;;7.97;7.07;;;3.70;94.30;;;;;;5140978;27;20143;-47
2021/05/08 01:03:28;;;;;;;7.10;6.35;;;3.70;94.70;;;;;;5148203;27;20761;-46
2021/05/08 01:05:57;;;;;;;11.45;7.35;;;3.60;94.40;;;;;;5128676;27;20042;-46
2021/05/08 01:08:24;;;;;;;9.35;6.70;;;3.50;94.30;;;;;;5143266;27;20407;-47
2021/05/08 01:10:55;;;;;;;10.30;6.65;;;3.50;94.30;;;;;;5147602;27;20058;-47
2021/05/08 01:13:26;;;;;;;9.55;8.30;;;3.50;94.20;;;;;;5129929;27;20418;-48
2021/05/08 01:15:55;;;;;;;10.18;7.63;;;3.50;94.20;;;;;;5130074;27;20046;-48
2021/05/08 01:18:25;;;;;;;7.85;6.80;;;3.50;94.50;;;;;;5129835;27;20092;-49
2021/05/08 01:20:56;;;;;;;9.77;6.70;;;3.50;94.50;;;;;;5147385;27;20053;-49
2021/05/08 01:23:25;;;;;;;9.05;7.15;;;3.50;94.40;;;;;;5148367;27;20470;-49
2021/05/08 01:25:54;;;;;;;10.27;6.53;;;3.40;94.30;;;;;;5131063;27;20047;-48
2021/05/08 01:28:27;;;;;;;8.88;6.75;;;3.40;94.20;;;;;;5130194;27;20039;-50
2021/05/08 01:30:57;;;;;;;10.18;7.32;;;3.40;94.00;;;;;;5131381;27;20043;-49
2021/05/08 01:33:24;;;;;;;13.43;7.47;;;3.40;93.90;;;;;;5148118;27;20055;-48
2021/05/08 01:35:54;;;;;;;10.18;7.70;;;3.30;94.00;;;;;;5129711;27;20065;-46
2021/05/08 01:38:26;;;;;;;8.55;7.63;;;3.40;94.60;;;;;;5148408;27;20418;-48
2021/05/08 01:41:05;;;;;;;9.13;8.10;;;3.30;94.40;;;;;;5144357;27;20057;-49
2021/05/08 01:43:34;;;;;;;10.27;8.35;;;3.30;94.30;;;;;;5147184;27;20770;-47
2021/05/08 01:46:06;;;;;;;10.73;8.07;;;3.30;94.10;;;;;;5129441;27;20126;-47
2021/05/08 01:48:37;;;;;;;9.68;7.70;;;3.30;94.30;;;;;;5141677;27;20054;-46
2021/05/08 01:51:11;;;;;;;8.90;7.80;;;3.30;94.20;;;;;;5129051;27;20066;-47
2021/05/08 01:53:38;;;;;;;9.77;8.13;;;3.20;94.20;;;;;;5129022;27;20042;-47
2021/05/08 01:56:07;;;;;;;10.10;8.05;;;3.10;94.20;;;;;;5155292;27;20486;-47
2021/05/08 01:58:39;;;;;;;11.07;8.70;;;3.10;94.00;;;;;;5147270;27;20157;-46
2021/05/08 02:01:10;;;;;;;10.32;8.70;;;3.10;94.30;;;;;;5149539;27;20654;-49
2021/05/08 02:03:51;;;;;;;10.25;8.20;;;3.00;94.20;;;;;;5124854;28;20078;-52
2021/05/08 02:06:18;;;;;;;10.93;8.52;;;3.00;94.90;;;;;;5122470;27;20045;-48
2021/05/08 02:09:09;;;;;;;10.35;8.90;;;3.00;95.00;;;;;;5143042;27;20050;-51
2021/05/08 02:11:46;;;;;;;12.73;8.65;;;3.10;94.60;;;;;;5146626;27;20047;-50
2021/05/08 02:14:17;;;;;;;11.43;9.32;;;3.00;94.60;;;;;;5147319;27;20047;-47
2021/05/08 02:16:56;;;;;;;11.70;8.30;;;3.10;95.00;;;;;;5146772;27;20151;-51
2021/05/08 02:19:25;;;;;;;12.50;8.90;;;3.10;95.10;;;;;;5134069;27;20053;-49
2021/05/08 02:21:55;;;;;;;12.02;9.90;;;3.00;94.90;;;;;;5147252;27;20061;-50
2021/05/08 02:24:24;;;;;;;12.60;9.05;;;2.90;94.70;;;;;;5129469;27;20046;-48
2021/05/08 02:26:53;;;;;;;9.07;7.75;;;3.00;95.30;;;;;;5147808;27;20065;-47
2021/05/08 02:29:20;;;;;;;13.75;9.40;;;2.90;94.90;;;;;;5147923;27;20452;-47
2021/05/08 02:31:52;;;;;;;14.00;9.13;;;2.90;94.70;;;;;;5129126;27;20061;-50
2021/05/08 02:34:18;;;;;;;13.90;9.02;;;2.90;94.90;;;;;;5132232;27;20153;-49
2021/05/08 02:36:48;;;;;;;10.85;9.38;;;2.90;94.70;;;;;;5132147;27;20131;-47
2021/05/08 02:39:14;;;;;;;11.93;8.77;;;2.80;94.50;;;;;;5132513;27;20051;-48
2021/05/08 02:41:41;;;;;;;12.10;9.80;;;2.80;94.60;;;;;;5150702;27;20051;-50
2021/05/08 02:44:10;;;;;;;12.00;9.68;;;2.80;94.90;;;;;;5151139;27;20046;-51
2021/05/08 02:46:39;;;;;;;13.73;10.90;;;2.70;94.60;;;;;;5146856;27;20115;-50
2021/05/08 02:49:09;;;;;;;12.88;11.20;;;2.70;95.00;;;;;;5149392;27;20046;-51
2021/05/08 02:51:38;;;;;;;14.82;10.38;;;2.70;95.00;;;;;;5132665;27;20046;-51
2021/05/08 02:54:09;;;;;;;17.00;13.00;;;2.70;95.00;;;;;;5132801;27;20505;-50
2021/05/08 02:56:38;;;;;;;14.13;12.50;;;2.70;95.20;;;;;;5151084;27;20126;-49
2021/05/08 02:59:07;;;;;;;19.90;13.48;;;2.70;94.80;;;;;;5135238;27;20046;-47
2021/05/08 03:01:37;;;;;;;13.05;11.75;;;2.70;94.90;;;;;;5127669;27;20050;-47
2021/05/08 03:04:09;;;;;;;16.77;12.13;;;2.70;95.10;;;;;;5142493;27;20043;-48
2021/05/08 03:06:42;;;;;;;15.00;12.95;;;2.70;95.10;;;;;;5133041;27;20130;-51
2021/05/08 03:09:11;;;;;;;15.82;14.18;;;2.70;95.20;;;;;;5146394;27;20054;-49
2021/05/08 03:11:44;;;;;;;15.23;12.88;;;2.70;95.50;;;;;;5151072;27;20047;-49
2021/05/08 03:14:19;;;;;;;13.88;10.95;;;2.70;95.30;;;;;;5150548;27;20736;-49
2021/05/08 03:16:49;;;;;;;14.60;11.30;;;2.60;95.30;;;;;;5131812;27;20046;-47
2021/05/08 03:19:19;;;;;;;19.08;12.98;;;2.60;95.10;;;;;;5141156;27;20103;-46
2021/05/08 03:21:49;;;;;;;14.70;13.15;;;2.60;95.30;;;;;;5148862;27;20107;-50
2021/05/08 03:24:15;;;;;;;13.88;12.05;;;2.50;94.90;;;;;;5131964;27;20059;-46
2021/05/08 03:26:45;;;;;;;14.93;13.40;;;2.50;95.10;;;;;;5131624;27;20051;-50
2021/05/08 03:29:11;;;;;;;15.15;11.80;;;2.40;95.30;;;;;;5150290;27;20050;-48
2021/05/08 03:31:43;;;;;;;12.82;11.55;;;2.40;95.60;;;;;;5150670;27;20046;-49
2021/05/08 03:34:13;;;;;;;18.00;12.10;;;2.30;95.40;;;;;;5133223;27;20055;-51
2021/05/08 03:36:43;;;;;;;18.02;12.70;;;2.30;95.60;;;;;;5133043;27;20146;-50
2021/05/08 03:39:12;;;;;;;17.42;12.68;;;2.30;95.30;;;;;;5149149;27;20042;-47
2021/05/08 03:41:45;;;;;;;17.73;12.20;;;2.30;95.20;;;;;;5148777;27;20050;-48
2021/05/08 03:44:14;;;;;;;16.67;12.65;;;2.30;95.30;;;;;;5149250;27;20095;-48
2021/05/08 03:46:43;;;;;;;16.52;13.57;;;2.20;95.30;;;;;;5131292;27;20577;-47
2021/05/08 03:49:17;;;;;;;19.35;13.07;;;2.20;95.70;;;;;;5150194;27;20047;-49
2021/05/08 03:51:46;;;;;;;19.83;14.75;;;2.20;95.70;;;;;;5150292;27;20123;-50
2021/05/08 03:54:15;;;;;;;17.13;13.93;;;2.20;95.90;;;;;;5149245;27;20255;-47
2021/05/08 03:56:46;;;;;;;16.83;14.40;;;2.20;95.90;;;;;;5152648;27;20050;-50
2021/05/08 03:59:15;;;;;;;17.75;14.65;;;2.20;95.70;;;;;;5149836;27;20447;-50
2021/05/08 04:01:44;;;;;;;19.42;16.75;;;2.30;95.70;;;;;;5149221;27;20498;-47
2021/05/08 04:04:10;;;;;;;20.23;16.55;;;2.30;95.70;;;;;;5133169;27;20604;-49
2021/05/08 04:06:40;;;;;;;19.90;16.38;;;2.30;95.70;;;;;;5128513;27;20051;-49
2021/05/08 04:09:10;;;;;;;20.10;17.88;;;2.30;95.70;;;;;;5146578;27;20046;-48
2021/05/08 04:11:37;;;;;;;20.98;17.60;;;2.40;95.90;;;;;;5149463;27;20042;-49
2021/05/08 04:14:07;;;;;;;19.23;16.63;;;2.40;95.90;;;;;;5148991;27;20051;-48
2021/05/08 04:16:42;;;;;;;21.88;18.45;;;2.40;95.70;;;;;;5149382;27;20054;-48
2021/05/08 04:19:11;;;;;;;19.57;17.43;;;2.40;95.80;;;;;;5150025;27;20043;-49
2021/05/08 04:21:37;;;;;;;19.88;17.73;;;2.50;96.00;;;;;;5149582;27;20133;-49
2021/05/08 04:24:07;;;;;;;22.67;18.63;;;2.50;95.90;;;;;;5150683;27;20375;-47
2021/05/08 04:26:36;;;;;;;23.85;17.88;;;2.50;96.00;;;;;;5149308;27;20050;-46
2021/05/08 04:29:05;;;;;;;17.98;16.10;;;2.60;96.20;;;;;;5149744;27;20070;-49
2021/05/08 04:31:36;;;;;;;19.90;17.90;;;2.60;96.40;;;;;;5150084;27;20050;-51
2021/05/08 04:34:05;;;;;;;19.52;17.40;;;2.60;96.40;;;;;;5148528;27;20054;-46
2021/05/08 04:36:37;;;;;;;20.02;17.67;;;2.60;96.00;;;;;;5149721;27;20050;-49
2021/05/08 04:39:06;;;;;;;19.98;17.83;;;2.70;95.70;;;;;;5148843;27;20054;-51
2021/05/08 04:41:35;;;;;;;18.80;16.80;;;2.70;95.80;;;;;;5149460;27;20057;-49
2021/05/08 04:44:05;;;;;;;21.10;18.38;;;2.80;95.70;;;;;;5149378;27;20080;-50
2021/05/08 04:46:36;;;;;;;20.50;17.52;;;2.90;95.70;;;;;;5149335;27;20054;-50
2021/05/08 04:49:05;;;;;;;20.75;16.63;;;2.90;95.80;;;;;;5148368;27;20639;-48
2021/05/08 04:51:31;;;;;;;19.88;17.75;;;3.00;95.80;;;;;;5130460;27;20042;-49
2021/05/08 04:54:09;;;;;;;20.38;18.27;;;3.10;96.00;;;;;;5147740;27;20046;-49
2021/05/08 04:56:43;;;;;;;18.50;16.50;;;3.20;95.90;;;;;;5148310;27;20944;-48
2021/05/08 04:59:12;;;;;;;19.55;17.65;;;3.30;95.70;;;;;;5149286;27;20579;-48
2021/05/08 05:01:39;;;;;;;20.52;17.35;;;3.40;95.70;;;;;;5148683;27;20061;-50
2021/05/08 05:04:08;;;;;;;20.17;16.42;;;3.60;95.70;;;;;;5126418;27;20047;-50
2021/05/08 05:06:38;;;;;;;18.58;15.80;;;3.90;95.20;;;;;;5146078;27;20557;-50
2021/05/08 05:09:04;;;;;;;18.63;15.10;;;4.30;94.60;;;;;;5148434;27;20079;-49
2021/05/08 05:11:34;;;;;;;16.45;14.45;;;4.60;93.80;;;;;;5148302;27;20498;-50
2021/05/08 05:14:06;;;;;;;16.70;14.43;;;4.80;93.30;;;;;;5148997;27;20472;-50
2021/05/08 05:16:35;;;;;;;14.55;12.95;;;5.00;92.90;;;;;;5148298;27;20407;-52
2021/05/08 05:19:04;;;;;;;14.00;12.48;;;5.30;92.70;;;;;;5148229;27;20092;-50
2021/05/08 05:21:33;;;;;;;16.08;12.80;;;5.50;92.20;;;;;;5153486;27;20482;-46
2021/05/08 05:24:03;;;;;;;13.30;11.93;;;5.70;91.80;;;;;;5148704;27;20971;-47
2021/05/08 05:26:36;;;;;;;16.27;11.93;;;5.70;91.40;;;;;;5149082;27;20118;-45
2021/05/08 05:29:11;;;;;;;15.45;12.15;;;5.80;91.30;;;;;;5148444;27;20448;-47
2021/05/08 05:31:38;;;;;;;12.77;11.48;;;6.00;91.10;;;;;;5147493;27;20047;-45
2021/05/08 05:34:05;;;;;;;13.50;11.60;;;6.20;91.10;;;;;;5147382;27;20050;-49
2021/05/08 05:36:34;;;;;;;14.00;11.43;;;6.50;91.20;;;;;;5145888;27;20051;-51
2021/05/08 05:39:03;;;;;;;14.05;10.63;;;6.90;91.20;;;;;;5144695;27;20494;-51
2021/05/08 05:41:32;;;;;;;22.85;20.45;;;7.30;90.60;;;;;;5152142;27;20042;-48
2021/05/08 05:44:03;;;;;;;73.40;57.60;;;7.60;90.30;;;;;;5147657;27;20057;-53
2021/05/08 05:46:32;;;;;;;20.52;15.85;;;7.90;90.10;;;;;;5145452;27;20494;-44
2021/05/08 05:49:02;;;;;;;25.63;19.58;;;8.00;89.20;;;;;;5147932;27;20047;-45
2021/05/08 05:51:32;;;;;;;12.57;9.85;;;8.30;87.70;;;;;;5148777;27;20421;-43
2021/05/08 05:54:04;;;;;;;13.00;10.75;;;8.40;87.10;;;;;;5151363;27;20092;-45
2021/05/08 05:56:30;;;;;;;17.70;13.82;;;8.50;85.80;;;;;;5168866;27;20061;-44
2021/05/08 05:59:02;;;;;;;18.30;14.68;;;8.70;86.70;;;;;;5169284;27;20458;-44
2021/05/08 06:01:31;;;;;;;13.00;11.43;;;8.90;87.20;;;;;;5152161;27;20043;-45
2021/05/08 06:04:02;;;;;;;11.23;9.35;;;8.90;81.60;;;;;;5138076;27;20078;-58
2021/05/08 06:06:32;;;;;;;9.73;8.73;;;8.70;83.00;;;;;;5153599;27;20093;-54
2021/05/08 06:08:59;;;;;;;9.75;8.52;;;8.70;81.00;;;;;;5159818;27;20058;-46
2021/05/08 06:11:26;;;;;;;12.02;9.30;;;8.80;83.50;;;;;;5149948;27;20092;-47
2021/05/08 06:13:55;;;;;;;13.80;12.30;;;8.90;82.40;;;;;;5157544;27;20158;-46
2021/05/08 06:16:24;;;;;;;16.63;13.18;;;8.90;82.00;;;;;;5149894;27;20045;-49
2021/05/08 06:18:53;;;;;;;10.95;9.82;;;8.80;81.50;;;;;;5151490;27;20723;-55
2021/05/08 06:21:20;;;;;;;11.93;10.25;;;8.80;81.60;;;;;;5152055;27;20050;-48
2021/05/08 06:23:51;;;;;;;13.15;11.60;;;9.00;81.40;;;;;;5151138;27;20061;-48
2021/05/08 06:26:17;;;;;;;11.52;9.55;;;9.20;80.70;;;;;;5150719;27;20553;-53
2021/05/08 06:28:47;;;;;;;15.15;13.52;;;9.40;81.20;;;;;;5150867;27;20073;-53
2021/05/08 06:31:16;;;;;;;14.68;11.48;;;9.60;80.80;;;;;;5150845;27;20442;-49
2021/05/08 06:33:47;;;;;;;12.65;10.57;;;9.90;80.80;;;;;;5150547;27;20050;-50
2021/05/08 06:36:16;;;;;;;13.63;12.25;;;10.20;79.10;;;;;;5151465;27;20061;-51
2021/05/08 06:38:45;;;;;;;12.65;10.45;;;10.40;78.80;;;;;;5151052;27;20078;-50
2021/05/08 06:41:19;;;;;;;12.63;10.82;;;10.40;78.00;;;;;;5133687;27;20051;-49
2021/05/08 06:43:54;;;;;;;13.40;11.75;;;10.60;77.60;;;;;;5148716;27;20057;-51
2021/05/08 06:46:23;;;;;;;13.13;11.75;;;10.80;77.80;;;;;;5148982;27;20528;-46
2021/05/08 06:48:54;;;;;;;20.75;17.90;;;10.90;75.70;;;;;;5153878;27;20039;-48
2021/05/08 06:51:23;;;;;;;18.00;14.90;;;11.10;75.50;;;;;;5150648;27;20050;-48
2021/05/08 06:53:52;;;;;;;22.17;19.75;;;11.10;73.60;;;;;;5151302;27;20049;-46
2021/05/08 06:56:20;;;;;;;15.90;13.57;;;11.00;73.10;;;;;;5132353;27;20051;-52
2021/05/08 06:58:54;;;;;;;15.40;13.23;;;11.00;73.60;;;;;;5149795;27;20520;-53
2021/05/08 07:01:22;;;;;;;14.82;13.35;;;10.70;70.40;;;;;;5137525;27;20188;-50
2021/05/08 07:03:51;;;;;;;15.83;12.37;;;10.70;73.40;;;;;;5142165;27;20734;-55
2021/05/08 07:06:24;;;;;;;15.05;12.20;;;10.80;73.20;;;;;;5150363;27;20837;-52
2021/05/08 07:08:54;;;;;;;20.92;18.30;;;10.80;73.60;;;;;;5150752;27;20046;-51
2021/05/08 07:11:25;;;;;;;14.80;13.40;;;10.90;72.80;;;;;;5130194;27;20107;-50
2021/05/08 07:13:52;;;;;;;12.88;11.57;;;11.00;73.50;;;;;;5136980;27;20544;-54
2021/05/08 07:16:26;;;;;;;14.55;12.05;;;10.80;71.90;;;;;;5144707;27;20596;-53
2021/05/08 07:18:56;;;;;;;16.05;12.82;;;10.90;72.90;;;;;;5148190;27;20051;-54
2021/05/08 07:21:22;;;;;;;14.57;12.55;;;10.90;71.80;;;;;;5127892;27;20063;-52
2021/05/08 07:23:52;;;;;;;15.00;13.40;;;11.00;73.00;;;;;;5149178;27;20061;-49
2021/05/08 07:26:20;;;;;;;13.32;11.93;;;11.20;72.10;;;;;;5149427;27;20459;-50
2021/05/08 07:28:51;;;;;;;13.55;11.73;;;11.40;71.40;;;;;;5149853;27;20046;-52
2021/05/08 07:31:17;;;;;;;15.05;12.00;;;11.60;71.30;;;;;;5148423;27;20046;-54
2021/05/08 07:33:48;;;;;;;12.98;11.60;;;11.60;70.90;;;;;;5147829;27;20152;-53
2021/05/08 07:36:24;;;;;;;16.60;12.20;;;11.70;69.90;;;;;;5148761;27;20157;-55
2021/05/08 07:38:57;;;;;;;13.80;12.00;;;11.80;69.00;;;;;;5147959;27;20042;-50
2021/05/08 07:41:24;;;;;;;14.13;12.32;;;11.60;69.30;;;;;;5148690;27;20176;-53
2021/05/08 07:43:53;;;;;;;14.68;12.18;;;11.60;68.90;;;;;;5148970;27;20126;-50
2021/05/08 07:46:22;;;;;;;12.73;11.38;;;11.70;70.20;;;;;;5148293;27;20517;-47
2021/05/08 07:48:49;;;;;;;34.60;30.25;;;11.80;69.30;;;;;;5149208;27;20039;-52
2021/05/08 07:51:17;;;;;;;23.92;20.00;;;11.90;69.40;;;;;;5148085;27;20123;-47
2021/05/08 07:53:46;;;;;;;16.50;14.63;;;12.00;67.90;;;;;;5148007;27;20047;-53
2021/05/08 07:56:17;;;;;;;15.00;11.95;;;11.90;69.50;;;;;;5148223;27;20110;-49
2021/05/08 07:58:47;;;;;;;13.93;11.80;;;12.00;67.70;;;;;;5147228;27;20066;-48
2021/05/08 08:01:16;;;;;;;14.68;11.73;;;12.20;68.00;;;;;;5145855;27;20050;-52
2021/05/08 08:03:45;;;;;;;13.70;11.60;;;12.40;68.70;;;;;;5146861;27;20051;-46
2021/05/08 08:06:16;;;;;;;10.90;9.80;;;12.50;67.20;;;;;;5148941;27;20067;-51
2021/05/08 08:08:45;;;;;;;12.05;10.48;;;12.40;65.40;;;;;;5148577;27;20057;-43
2021/05/08 08:11:15;;;;;;;17.00;15.20;;;12.40;65.60;;;;;;5148986;27;20486;-48
2021/05/08 08:13:41;;;;;;;11.57;9.82;;;12.50;66.90;;;;;;5139115;27;20042;-52
2021/05/08 08:16:11;;;;;;;11.32;9.15;;;12.60;66.70;;;;;;5151364;27;20042;-53
2021/05/08 08:18:40;;;;;;;10.60;8.50;;;12.50;63.40;;;;;;5147531;27;20050;-53
2021/05/08 08:21:08;;;;;;;11.80;9.73;;;12.40;61.30;;;;;;5147019;27;20050;-53
2021/05/08 08:23:37;;;;;;;10.50;9.27;;;12.50;63.10;;;;;;5148556;27;20046;-51
2021/05/08 08:26:08;;;;;;;11.50;8.90;;;12.70;63.60;;;;;;5149016;27;20053;-49
2021/05/08 08:28:40;;;;;;;10.02;8.73;;;12.70;61.70;;;;;;5147011;27;20145;-51
2021/05/08 08:31:07;;;;;;;11.32;9.70;;;12.60;60.30;;;;;;5146462;27;20042;-54
2021/05/08 08:33:39;;;;;;;13.32;10.25;;;12.70;60.90;;;;;;5147336;27;21463;-54
2021/05/08 08:36:10;;;;;;;;;;;12.70;61.10;;;;;;5150336;27;20071;-54
2021/05/08 08:38:39;;;;;;;20.73;18.55;;;12.50;62.00;;;;;;5148561;27;19923;-55
2021/05/08 08:41:06;;;;;;;20.38;16.15;;;12.60;60.50;;;;;;5148828;27;20057;-55
2021/05/08 08:43:36;;;;;;;18.40;14.40;;;12.70;62.80;;;;;;5148433;27;20501;-53
2021/05/08 08:46:06;;;;;;;13.30;11.70;;;12.80;62.40;;;;;;5147460;27;20148;-55
2021/05/08 08:48:38;;;;;;;13.13;11.63;;;13.00;62.20;;;;;;5141579;27;20050;-55
2021/05/08 08:51:07;;;;;;;;;;;13.00;60.70;;;;;;5150779;27;20054;-53
2021/05/08 08:53:36;;;;;;;13.50;11.85;;;12.90;61.70;;;;;;5147812;27;19965;-49
2021/05/08 08:56:06;;;;;;;15.57;12.23;;;13.00;62.90;;;;;;5147490;27;20477;-55
2021/05/08 08:58:36;;;;;;;13.40;12.00;;;12.90;62.90;;;;;;5146616;27;20042;-54
2021/05/08 09:01:08;;;;;;;14.80;12.38;;;12.90;63.40;;;;;;5146112;27;20513;-55
2021/05/08 09:03:42;;;;;;;21.98;19.67;;;12.90;62.90;;;;;;5150718;27;20072;-52
2021/05/08 09:06:13;;;;;;;18.50;15.05;;;12.80;61.50;;;;;;5146415;27;20100;-47
2021/05/08 09:08:40;;;;;;;14.88;13.18;;;12.90;62.40;;;;;;5134815;27;20411;-44
2021/05/08 09:11:20;;;;;;;14.80;13.18;;;13.10;63.40;;;;;;5153563;27;20042;-54
2021/05/08 09:13:47;;;;;;;16.08;12.75;;;13.20;61.80;;;;;;5152696;27;20043;-55
2021/05/08 09:16:17;;;;;;;15.52;13.55;;;13.10;61.60;;;;;;5153997;27;20081;-49
2021/05/08 09:18:49;;;;;;;14.43;12.40;;;13.30;63.40;;;;;;5146573;27;20512;-60
2021/05/08 09:21:30;;;;;;;14.80;12.85;;;13.20;60.30;;;;;;5151663;27;20507;-52
2021/05/08 09:24:03;;;;;;;16.67;13.55;;;13.00;60.20;;;;;;5149173;27;20115;-55
2021/05/08 09:26:39;;;;;;;17.00;13.52;;;13.10;60.90;;;;;;5110387;27;20522;-55
2021/05/08 09:29:23;;;;;;;17.98;14.23;;;13.10;60.60;;;;;;5126248;27;20392;-55
2021/05/08 09:31:57;;;;;;;18.02;15.20;;;13.10;60.80;;;;;;5127423;27;21029;-53
2021/05/08 09:34:28;;;;;;;15.60;13.93;;;12.90;61.90;;;;;;5142104;27;20047;-56
2021/05/08 09:37:00;;;;;;;16.42;13.30;;;12.90;61.30;;;;;;5146442;27;20145;-51
2021/05/08 09:39:35;;;;;;;16.15;14.18;;;12.90;62.30;;;;;;5146747;27;20046;-56
2021/05/08 09:42:04;;;;;;;16.02;13.82;;;12.80;61.50;;;;;;5149005;27;20697;-56
2021/05/08 09:44:33;;;;;;;15.95;14.10;;;12.90;60.70;;;;;;5148296;27;20042;-47
2021/05/08 09:47:01;;;;;;;14.90;13.38;;;12.90;61.80;;;;;;5163935;27;20098;-54
2021/05/08 09:49:30;;;;;;;27.33;24.10;;;12.90;61.40;;;;;;5151993;27;20072;-46
2021/05/08 09:52:00;;;;;;;45.53;38.15;;;13.00;61.00;;;;;;5136384;27;20051;-46
2021/05/08 09:54:31;;;;;;;24.15;20.08;;;13.00;60.70;;;;;;5149048;27;20047;-46
2021/05/08 09:57:01;;;;;;;23.20;17.27;;;12.90;60.60;;;;;;5152225;27;20081;-45
2021/05/08 09:59:37;;;;;;;;;;;13.00;60.40;;;;;;5152710;27;20046;-45
2021/05/08 10:02:09;;;;;;;16.25;13.75;;;13.00;60.30;;;;;;5152609;27;19931;-45
2021/05/08 10:04:46;;;;;;;17.88;14.60;;;13.10;61.40;;;;;;5145068;27;20042;-46
2021/05/08 10:07:14;;;;;;;18.45;14.05;;;13.10;61.50;;;;;;5150631;27;20069;-43
2021/05/08 10:09:52;;;;;;;17.48;14.60;;;13.30;62.20;;;;;;5151182;27;20740;-46
2021/05/08 10:12:27;;;;;;;15.13;13.52;;;13.30;61.90;;;;;;5152651;27;20099;-48
2021/05/08 10:14:58;;;;;;;18.48;14.45;;;13.50;59.00;;;;;;5152085;27;20103;-45
2021/05/08 10:17:30;;;;;;;16.40;13.15;;;13.70;59.70;;;;;;5152265;27;20564;-46
2021/05/08 10:20:02;;;;;;;17.65;12.60;;;14.00;61.20;;;;;;5146068;27;20054;-46
2021/05/08 10:22:34;;;;;;;17.25;13.80;;;14.50;58.20;;;;;;5151655;27;20047;-46
2021/05/08 10:25:05;;;;;;;17.05;13.25;;;15.00;60.20;;;;;;5152599;27;20051;-45
2021/05/08 10:27:35;;;;;;;15.15;12.18;;;15.50;59.00;;;;;;5151996;27;20039;-49
2021/05/08 10:30:10;;;;;;;14.50;12.70;;;15.70;56.70;;;;;;5150553;27;20165;-49
2021/05/08 10:32:41;;;;;;;14.55;12.50;;;15.90;56.50;;;;;;5151610;27;20051;-52
2021/05/08 10:35:14;;;;;;;16.20;12.00;;;15.90;55.60;;;;;;5151850;27;20168;-46
2021/05/08 10:38:12;;;;;;;14.05;11.40;;;15.90;55.40;;;;;;5153048;27;20061;-44
2021/05/08 10:40:59;;;;;;;12.80;10.43;;;15.80;52.50;;;;;;5148643;27;20054;-49
2021/05/08 10:43:43;;;;;;;14.90;10.82;;;15.90;51.40;;;;;;5148169;27;20074;-46
2021/05/08 10:46:24;;;;;;;16.05;11.60;;;16.30;54.50;;;;;;5152179;27;20399;-47
2021/05/08 10:49:14;;;;;;;14.73;10.40;;;16.50;53.60;;;;;;5137028;27;20039;-46
2021/05/08 10:51:52;;;;;;;13.23;9.93;;;16.60;52.50;;;;;;5148070;27;20565;-45
2021/05/08 10:54:42;;;;;;;12.15;9.70;;;16.40;52.30;;;;;;5150948;27;20141;-48
2021/05/08 10:57:18;;;;;;;16.40;9.70;;;16.40;53.30;;;;;;5151852;27;20055;-56
2021/05/08 11:00:09;;;;;;;13.00;8.95;;;16.30;53.00;;;;;;5152048;27;20054;-47
2021/05/08 11:02:44;;;;;;;12.13;9.50;;;15.80;52.20;;;;;;5148831;27;20125;-45
2021/05/08 11:05:31;;;;;;;11.43;9.00;;;15.40;51.90;;;;;;5138452;27;20051;-45
2021/05/08 11:08:18;;;;;;;13.00;9.23;;;15.10;53.40;;;;;;5136731;27;20053;-48
2021/05/08 11:10:52;;;;;;;10.95;8.98;;;15.00;55.80;;;;;;5149143;27;20046;-50
2021/05/08 11:13:21;;;;;;;14.43;9.77;;;15.00;55.50;;;;;;5149416;27;20042;-48
2021/05/08 11:15:56;;;;;;;14.38;9.73;;;14.90;56.00;;;;;;5151078;27;20393;-48
2021/05/08 11:18:33;;;;;;;11.05;9.15;;;14.80;55.70;;;;;;5150756;27;20511;-46
2021/05/08 11:21:08;;;;;;;13.32;8.73;;;14.80;56.30;;;;;;5151505;27;20055;-46
2021/05/08 11:23:51;;;;;;;10.73;9.07;;;14.70;56.00;;;;;;5150777;27;20050;-46
2021/05/08 11:26:28;;;;;;;10.93;8.70;;;14.80;57.10;;;;;;5149996;27;20039;-51
2021/05/08 11:29:20;;;;;;;10.32;8.25;;;14.70;56.60;;;;;;5150542;27;20051;-50
2021/05/08 11:31:57;;;;;;;11.05;8.80;;;14.50;55.70;;;;;;5154258;27;20042;-50
2021/05/08 11:34:29;;;;;;;9.75;7.78;;;14.40;56.20;;;;;;5150333;27;20058;-53
2021/05/08 11:37:09;;;;;;;11.00;7.22;;;14.50;56.70;;;;;;5156615;27;20055;-50
2021/05/08 11:39:46;;;;;;;10.57;7.63;;;14.80;55.40;;;;;;5149878;27;20049;-50
2021/05/08 11:42:31;;;;;;;10.15;7.65;;;15.20;54.60;;;;;;5157930;27;20719;-54
2021/05/08 11:45:00;;;;;;;9.80;7.18;;;15.30;54.60;;;;;;5150444;27;20103;-54
2021/05/08 11:47:33;;;;;;;9.32;7.00;;;15.00;53.80;;;;;;5132226;27;20065;-55
2021/05/08 11:50:13;;;;;;;9.20;6.70;;;14.90;55.00;;;;;;5149370;27;20523;-57
2021/05/08 11:52:41;;;;;;;10.43;8.32;;;14.90;53.00;;;;;;5148994;27;20050;-52
2021/05/08 11:55:13;;;;;;;25.65;21.35;;;14.90;55.60;;;;;;5150256;27;20055;-56
2021/05/08 11:57:47;;;;;;;;;;;14.80;51.90;;;;;;5149068;27;20043;-54
2021/05/08 12:00:19;;;;;;;9.93;6.63;;;14.80;55.20;;;;;;5150011;27;19923;-57
2021/05/08 12:02:45;;;;;;;10.45;8.60;;;14.50;52.70;;;;;;5151701;27;20038;-55
2021/05/08 12:05:15;;;;;;;10.70;6.93;;;14.40;55.90;;;;;;5149498;27;20103;-55
2021/05/08 12:07:45;;;;;;;11.50;7.15;;;14.10;55.70;;;;;;5133752;27;20039;-57
2021/05/08 12:10:20;;;;;;;6.93;5.93;;;14.10;56.60;;;;;;5128142;27;20051;-54
2021/05/08 12:12:57;;;;;;;10.48;6.78;;;14.10;58.10;;;;;;5129822;27;20050;-54
2021/05/08 12:15:26;;;;;;;8.43;6.00;;;14.10;58.40;;;;;;5148919;27;20070;-58
2021/05/08 12:17:56;;;;;;;9.73;6.03;;;14.20;59.10;;;;;;5147820;27;20498;-56
2021/05/08 12:20:25;;;;;;;9.93;6.45;;;14.20;60.60;;;;;;5149233;27;20069;-54
2021/05/08 12:22:56;;;;;;;13.00;10.25;;;14.30;59.30;;;;;;5153520;27;20521;-53
2021/05/08 12:25:26;;;;;;;8.27;5.22;;;14.20;61.00;;;;;;5155138;27;20043;-51
2021/05/08 12:28:20;;;;;;;8.93;5.32;;;14.20;59.10;;;;;;5127956;27;20047;-54
2021/05/08 12:30:52;;;;;;;8.20;5.35;;;14.10;61.30;;;;;;5144923;27;20170;-56
2021/05/08 12:33:24;;;;;;;;;;;14.10;60.00;;;;;;5149508;27;20043;-55
2021/05/08 12:35:57;;;;;;;7.60;4.80;;;14.20;60.00;;;;;;5150629;27;19975;-53
2021/05/08 12:38:35;;;;;;;12.15;7.78;;;14.10;60.10;;;;;;5149388;27;20055;-54
2021/05/08 12:41:01;;;;;;;11.38;7.90;;;13.70;61.80;;;;;;5152928;27;20441;-52
2021/05/08 12:43:41;;;;;;;;;;;13.60;63.00;;;;;;5149919;27;20043;-50
2021/05/08 12:46:11;;;;;;;7.25;5.18;;;13.50;65.20;;;;;;5149497;27;19927;-52
2021/05/08 12:48:43;;;;;;;6.95;5.20;;;13.40;64.40;;;;;;5148981;27;20509;-50
2021/05/08 12:51:33;;;;;;;6.68;4.30;;;13.40;65.70;;;;;;5144794;27;20138;-49
2021/05/08 12:54:32;;;;;;;7.72;4.13;;;13.20;64.70;;;;;;5142439;27;20133;-50
2021/05/08 12:57:14;;;;;;;7.53;4.72;;;13.10;64.80;;;;;;5140441;27;20054;-53
2021/05/08 12:59:42;;;;;;;6.95;5.18;;;13.00;66.30;;;;;;5148551;27;20042;-52
2021/05/08 13:02:21;;;;;;;10.43;8.35;;;12.90;67.40;;;;;;5144384;27;20458;-51